Gap Mills, West Virginia
Current Conditions -  °F | °C
As of 5:35 PM on Monday 24 Nov 2014 (Local Time) from KLWB Reporting Station
Clear Clear  
Wind Chill: 65°   Ceiling: Unl
Heat Index: 65°   Visibility: 10mi
Dew Point: 35°   Wind: 9mph
Humidity: 32%   Direction: 230°SW
Pressure: 29.74"   Gusts: 23mph
Location:  37.57°N, 80.41°W
Report Text: KLWB 242235Z AUTO 23008G20KT 10SM CLR 19/01 A2974 RMK AO2 T01860014
Loading
Personal Weather Stations






























Interactive Weather Map New forecast layout! Learn more

10-Day Weather Forecast

Advertisements
Track Severe Weather on mobile